Time;durP1;ratioP1;P1;durP2;ratioP2;P2;SDS_P1;SDS_P2;PMS_P1;PMS_P2;Temp;Humidity;BMP_temperature;BMP_pressure;BME280_temperature;BME280_humidity;BME280_pressure;Samples;Min_cycle;Max_cycle;Signal;HPM_P1;HPM_P2
2023/06/24 00:01:02;;;;;;;20.15;11.15;;;20.80;74.20;;;;;;5137745;27;20347;-70
2023/06/24 00:03:28;;;;;;;23.90;10.85;;;20.70;74.40;;;;;;5145355;28;20063;-70
2023/06/24 00:05:56;;;;;;;15.43;8.65;;;20.70;74.70;;;;;;5145780;28;20322;-70
2023/06/24 00:08:22;;;;;;;16.92;9.07;;;20.70;74.40;;;;;;5145538;27;20023;-70
2023/06/24 00:10:49;;;;;;;15.07;8.15;;;20.70;74.40;;;;;;5140872;27;20032;-70
2023/06/24 00:13:16;;;;;;;13.77;7.65;;;20.60;74.40;;;;;;5136982;27;20027;-70
2023/06/24 00:15:42;;;;;;;12.27;7.35;;;20.60;74.40;;;;;;5139110;27;20426;-70
2023/06/24 00:18:12;;;;;;;12.13;7.25;;;20.60;74.50;;;;;;5138854;27;20479;-70
2023/06/24 00:20:38;;;;;;;11.88;7.78;;;20.60;74.40;;;;;;5139305;27;20102;-70
2023/06/24 00:23:04;;;;;;;16.55;7.75;;;20.60;74.40;;;;;;5138982;27;20015;-70
2023/06/24 00:25:30;;;;;;;16.63;8.50;;;20.60;74.50;;;;;;5138974;27;20023;-70
2023/06/24 00:27:56;;;;;;;16.92;11.23;;;20.60;74.50;;;;;;5138787;27;20038;-70
2023/06/24 00:30:22;;;;;;;18.13;9.50;;;20.50;75.40;;;;;;5138878;27;20019;-70
2023/06/24 00:32:49;;;;;;;18.25;9.43;;;20.40;75.30;;;;;;5138824;27;20031;-70
2023/06/24 00:35:15;;;;;;;15.70;9.80;;;20.40;75.10;;;;;;5139315;27;20055;-70
2023/06/24 00:37:45;;;;;;;12.68;8.10;;;20.40;75.30;;;;;;5138598;27;20031;-70
2023/06/24 00:40:11;;;;;;;12.43;7.32;;;20.40;75.00;;;;;;5138487;27;20382;-70
2023/06/24 00:42:38;;;;;;;10.30;6.70;;;20.40;74.90;;;;;;5138534;27;20405;-70
2023/06/24 00:45:04;;;;;;;13.80;7.38;;;20.40;74.80;;;;;;5138580;27;20039;-70
2023/06/24 00:47:31;;;;;;;11.50;6.57;;;20.30;74.80;;;;;;5138810;27;20026;-70
2023/06/24 00:49:57;;;;;;;11.73;6.70;;;20.30;74.80;;;;;;5138417;27;20034;-70
2023/06/24 00:52:23;;;;;;;13.38;7.45;;;20.30;74.70;;;;;;5137406;27;20368;-70
2023/06/24 00:54:49;;;;;;;12.00;6.97;;;20.30;74.80;;;;;;5138658;27;20053;-70
2023/06/24 00:57:17;;;;;;;17.30;10.13;;;20.30;74.80;;;;;;5138452;27;20044;-70
2023/06/24 00:59:45;;;;;;;12.68;7.40;;;20.30;75.30;;;;;;5137966;27;20042;-70
2023/06/24 01:02:11;;;;;;;12.25;7.10;;;20.20;75.10;;;;;;5138261;27;20019;-70
2023/06/24 01:04:39;;;;;;;10.68;7.03;;;20.20;75.20;;;;;;5138419;27;20019;-70
2023/06/24 01:07:06;;;;;;;21.17;8.25;;;20.10;75.00;;;;;;5138678;27;20030;-70
2023/06/24 01:09:32;;;;;;;17.95;9.88;;;20.10;75.10;;;;;;5138281;27;20027;-70
2023/06/24 01:11:58;;;;;;;10.40;6.78;;;20.00;75.80;;;;;;5138284;27;20040;-69
2023/06/24 01:14:24;;;;;;;12.57;6.95;;;20.00;75.30;;;;;;5137964;27;20048;-70
2023/06/24 01:17:00;;;;;;;10.48;7.05;;;20.00;75.30;;;;;;5137905;27;20398;-70
2023/06/24 01:20:04;;;;;;;11.32;7.13;;;20.00;75.20;;;;;;5137861;27;20027;-70
2023/06/24 01:22:49;;;;;;;;;;;20.00;75.30;;;;;;5138851;27;20026;-70
2023/06/24 01:25:44;;;;;;;11.35;6.13;;;20.10;75.70;;;;;;5137800;27;19922;-70
2023/06/24 01:28:28;;;;;;;19.65;10.05;;;20.10;75.10;;;;;;5138159;27;20038;-70
2023/06/24 01:31:17;;;;;;;14.57;8.00;;;20.10;75.60;;;;;;5136662;27;20064;-70
2023/06/24 01:34:12;;;;;;;13.68;7.28;;;20.10;75.50;;;;;;5119716;27;20355;-70
2023/06/24 01:36:44;;;;;;;11.68;6.65;;;19.90;75.30;;;;;;5137820;27;20052;-70
2023/06/24 01:39:14;;;;;;;20.13;10.73;;;20.00;75.30;;;;;;5137615;27;20098;-69
2023/06/24 01:41:47;;;;;;;15.77;9.30;;;19.90;76.40;;;;;;5137955;27;20103;-70
2023/06/24 01:44:15;;;;;;;15.00;8.93;;;19.90;75.80;;;;;;5137964;27;20023;-70
2023/06/24 01:46:44;;;;;;;19.00;8.52;;;19.90;75.80;;;;;;5137589;27;20011;-70
2023/06/24 01:49:14;;;;;;;17.55;8.90;;;20.00;75.80;;;;;;5137217;27;20027;-70
2023/06/24 01:51:42;;;;;;;15.32;8.50;;;20.20;75.40;;;;;;5137558;27;20027;-70
2023/06/24 01:54:14;;;;;;;16.00;7.63;;;20.20;75.40;;;;;;5137467;27;20027;-70
2023/06/24 01:56:43;;;;;;;18.98;9.18;;;20.10;75.10;;;;;;5137708;27;20020;-70
2023/06/24 01:59:11;;;;;;;12.15;7.60;;;20.00;75.20;;;;;;5136717;27;20039;-70
2023/06/24 02:01:39;;;;;;;11.05;7.65;;;20.00;75.30;;;;;;5136374;27;20027;-70
2023/06/24 02:04:10;;;;;;;14.50;8.35;;;19.90;75.30;;;;;;5136949;27;20019;-70
2023/06/24 02:06:37;;;;;;;15.70;9.57;;;20.00;75.30;;;;;;5137229;27;20027;-70
2023/06/24 02:09:05;;;;;;;22.73;10.52;;;20.20;75.30;;;;;;5136808;27;20023;-70
2023/06/24 02:11:33;;;;;;;19.15;8.55;;;20.10;75.10;;;;;;5136862;27;20511;-70
2023/06/24 02:14:01;;;;;;;14.07;7.40;;;20.10;75.00;;;;;;5137105;27;20034;-70
2023/06/24 02:16:29;;;;;;;18.98;9.30;;;20.00;74.90;;;;;;5136782;27;20019;-70
2023/06/24 02:18:56;;;;;;;12.93;7.57;;;19.90;75.00;;;;;;5136609;27;20031;-70
2023/06/24 02:21:24;;;;;;;12.60;6.78;;;19.90;75.00;;;;;;5137031;27;20131;-70
2023/06/24 02:23:51;;;;;;;13.75;7.25;;;19.90;75.10;;;;;;5136902;27;20436;-70
2023/06/24 02:26:18;;;;;;;14.00;7.90;;;19.80;75.10;;;;;;5135740;27;20068;-70
2023/06/24 02:28:46;;;;;;;14.98;8.10;;;19.80;75.30;;;;;;5136661;27;20105;-70
2023/06/24 02:31:12;;;;;;;15.38;8.90;;;19.80;75.30;;;;;;5136832;27;20080;-70
2023/06/24 02:33:39;;;;;;;12.35;7.60;;;19.70;75.40;;;;;;5136460;27;20334;-69
2023/06/24 02:36:05;;;;;;;12.05;7.00;;;19.70;75.40;;;;;;5136504;27;20047;-69
2023/06/24 02:38:31;;;;;;;12.93;7.57;;;19.60;75.40;;;;;;5136555;27;20038;-70
2023/06/24 02:40:58;;;;;;;14.13;6.88;;;19.60;75.40;;;;;;5136329;27;20019;-69
2023/06/24 02:43:24;;;;;;;18.17;11.20;;;19.60;75.40;;;;;;5136371;27;20019;-70
2023/06/24 02:45:51;;;;;;;21.30;11.65;;;19.50;76.00;;;;;;5136329;27;20115;-70
2023/06/24 02:48:18;;;;;;;24.83;11.25;;;19.50;76.30;;;;;;5136518;27;20031;-69
2023/06/24 02:50:46;;;;;;;20.73;10.00;;;19.40;76.50;;;;;;5136547;27;20019;-69
2023/06/24 02:53:12;;;;;;;14.55;8.00;;;19.30;76.60;;;;;;5136245;27;20023;-69
2023/06/24 02:55:41;;;;;;;10.43;6.70;;;19.30;76.20;;;;;;5136434;27;20363;-69
2023/06/24 02:58:07;;;;;;;12.48;8.00;;;19.20;76.20;;;;;;5135749;27;20341;-69
2023/06/24 03:00:36;;;;;;;17.85;8.77;;;19.20;76.00;;;;;;5135247;28;20027;-69
2023/06/24 03:03:04;;;;;;;15.95;8.90;;;19.20;76.00;;;;;;5136148;27;20151;-69
2023/06/24 03:05:32;;;;;;;10.98;7.35;;;19.10;76.20;;;;;;5136655;27;20050;-70
2023/06/24 03:07:58;;;;;;;16.15;7.68;;;19.10;76.20;;;;;;5135956;27;20173;-69
2023/06/24 03:10:25;;;;;;;18.05;9.73;;;19.10;76.40;;;;;;5136362;27;20055;-69
2023/06/24 03:12:52;;;;;;;21.48;11.05;;;19.20;76.50;;;;;;5136315;27;20373;-70
2023/06/24 03:15:18;;;;;;;19.45;9.27;;;19.10;77.00;;;;;;5135998;27;20069;-69
2023/06/24 03:17:44;;;;;;;19.13;9.00;;;19.10;76.90;;;;;;5136001;27;20027;-69
2023/06/24 03:20:10;;;;;;;15.32;7.40;;;19.00;76.80;;;;;;5136411;28;20409;-69
2023/06/24 03:22:36;;;;;;;14.93;7.65;;;19.00;76.60;;;;;;5136226;27;20479;-69
2023/06/24 03:25:03;;;;;;;12.48;7.82;;;19.10;76.50;;;;;;5136507;28;20047;-69
2023/06/24 03:27:28;;;;;;;13.77;7.60;;;19.10;76.30;;;;;;5135953;27;20024;-69
2023/06/24 03:29:54;;;;;;;19.92;9.80;;;19.10;76.50;;;;;;5135857;27;20023;-69
2023/06/24 03:32:20;;;;;;;16.35;9.55;;;19.00;77.00;;;;;;5136408;27;20027;-69
2023/06/24 03:34:46;;;;;;;15.20;7.95;;;19.00;77.10;;;;;;5136111;27;20030;-69
2023/06/24 03:37:12;;;;;;;13.80;7.75;;;19.00;76.80;;;;;;5135866;27;20027;-69
2023/06/24 03:39:38;;;;;;;16.15;7.75;;;19.00;76.60;;;;;;5136208;27;20034;-69
2023/06/24 03:42:04;;;;;;;17.63;9.45;;;18.90;76.50;;;;;;5135832;27;20038;-70
2023/06/24 03:44:30;;;;;;;16.95;8.35;;;18.90;77.20;;;;;;5136050;27;20043;-69
2023/06/24 03:46:56;;;;;;;16.20;7.63;;;19.00;77.00;;;;;;5136214;27;20027;-69
2023/06/24 03:49:22;;;;;;;14.38;8.55;;;18.90;76.70;;;;;;5139612;27;20116;-69
2023/06/24 03:51:48;;;;;;;14.73;8.32;;;19.00;76.80;;;;;;5139619;27;20035;-69
2023/06/24 03:54:14;;;;;;;18.10;9.82;;;19.00;76.70;;;;;;5140107;27;20080;-69
2023/06/24 03:56:40;;;;;;;15.20;9.23;;;19.00;76.60;;;;;;5139785;27;20031;-69
2023/06/24 03:59:06;;;;;;;21.25;9.52;;;19.00;76.50;;;;;;5139116;27;20035;-69
2023/06/24 04:01:32;;;;;;;17.83;9.60;;;19.00;76.30;;;;;;5139702;27;20075;-69
2023/06/24 04:03:58;;;;;;;13.75;7.80;;;19.00;76.20;;;;;;5139626;27;20020;-69
2023/06/24 04:06:24;;;;;;;12.40;7.18;;;19.10;76.10;;;;;;5139878;27;20087;-68
2023/06/24 04:08:51;;;;;;;13.55;7.22;;;19.10;75.90;;;;;;5139293;27;20060;-69
2023/06/24 04:11:18;;;;;;;11.38;6.53;;;19.20;75.80;;;;;;5139199;27;20066;-69
2023/06/24 04:13:48;;;;;;;14.70;7.35;;;19.30;75.80;;;;;;5139985;27;20027;-69
2023/06/24 04:16:14;;;;;;;11.77;7.20;;;19.40;75.50;;;;;;5139173;27;20026;-69
2023/06/24 04:18:40;;;;;;;14.43;7.15;;;19.50;75.50;;;;;;5139107;27;20031;-68
2023/06/24 04:21:06;;;;;;;10.35;7.10;;;19.70;75.40;;;;;;5139091;27;20111;-68
2023/06/24 04:23:33;;;;;;;11.82;6.80;;;19.80;75.20;;;;;;5139131;27;20456;-68
2023/06/24 04:25:59;;;;;;;12.38;7.63;;;19.90;74.90;;;;;;5138958;27;20024;-68
2023/06/24 04:28:25;;;;;;;13.82;8.30;;;20.00;75.00;;;;;;5138890;27;20098;-68
2023/06/24 04:30:51;;;;;;;12.25;6.72;;;20.20;74.50;;;;;;5138955;27;20095;-68
2023/06/24 04:33:18;;;;;;;13.93;6.80;;;20.40;74.10;;;;;;5139164;27;20126;-68
2023/06/24 04:35:44;;;;;;;11.48;7.13;;;20.50;73.80;;;;;;5138857;27;20465;-69
2023/06/24 04:38:10;;;;;;;11.63;6.40;;;20.70;73.50;;;;;;5140628;27;20023;-69
2023/06/24 04:40:36;;;;;;;13.05;6.47;;;20.90;73.20;;;;;;5148870;27;20019;-69
2023/06/24 04:43:03;;;;;;;10.35;6.72;;;21.20;72.90;;;;;;5149689;27;20030;-70
2023/06/24 04:45:29;;;;;;;10.65;6.25;;;21.40;72.50;;;;;;5149655;27;20023;-69
2023/06/24 04:47:54;;;;;;;10.75;6.43;;;21.60;72.20;;;;;;5149011;27;20021;-69
2023/06/24 04:50:20;;;;;;;10.52;5.75;;;21.90;72.00;;;;;;5148499;27;20046;-69
2023/06/24 04:52:53;;;;;;;11.23;6.65;;;22.30;71.90;;;;;;5139641;27;20509;-70
2023/06/24 04:55:19;;;;;;;12.60;7.38;;;22.90;71.70;;;;;;5137542;27;20023;-70
2023/06/24 04:57:45;;;;;;;14.13;6.15;;;23.90;70.40;;;;;;5137672;27;20047;-70
2023/06/24 05:00:12;;;;;;;12.93;5.70;;;25.10;67.70;;;;;;5138548;27;20019;-70
2023/06/24 05:02:38;;;;;;;9.13;5.75;;;26.30;65.40;;;;;;5138289;27;20038;-71
2023/06/24 05:05:04;;;;;;;9.63;5.82;;;27.50;62.90;;;;;;5138197;27;20023;-71
2023/06/24 05:07:30;;;;;;;10.27;6.07;;;28.50;60.10;;;;;;5138665;27;20097;-71
2023/06/24 05:09:56;;;;;;;9.00;5.55;;;29.50;57.00;;;;;;5138126;27;20513;-72
2023/06/24 05:12:22;;;;;;;12.48;5.75;;;30.40;55.00;;;;;;5137223;27;20031;-74
2023/06/24 05:14:54;;;;;;;18.40;6.03;;;31.10;53.10;;;;;;5138617;27;20486;-72
2023/06/24 05:17:20;;;;;;;20.55;5.80;;;31.90;51.00;;;;;;5138561;27;20027;-72
2023/06/24 05:19:46;;;;;;;11.05;4.68;;;32.70;49.30;;;;;;5137883;27;20027;-72
2023/06/24 05:22:12;;;;;;;8.48;4.50;;;33.50;48.10;;;;;;5137922;27;20349;-72
2023/06/24 05:24:38;;;;;;;6.45;4.43;;;34.20;46.40;;;;;;5138088;27;20034;-71
2023/06/24 05:27:06;;;;;;;8.13;4.57;;;34.90;44.80;;;;;;5136862;27;20019;-70
2023/06/24 05:29:35;;;;;;;9.80;4.90;;;35.40;44.00;;;;;;5137717;27;20023;-70
2023/06/24 05:32:03;;;;;;;11.02;5.20;;;36.00;42.70;;;;;;5137748;27;20027;-70
2023/06/24 05:34:30;;;;;;;10.70;5.95;;;36.50;41.60;;;;;;5137921;27;20023;-71
2023/06/24 05:36:56;;;;;;;11.30;5.22;;;36.90;40.00;;;;;;5137511;27;20452;-70
2023/06/24 05:39:22;;;;;;;9.85;5.57;;;37.40;39.40;;;;;;5137474;27;20019;-72
2023/06/24 05:41:48;;;;;;;13.13;4.93;;;38.00;38.50;;;;;;5137524;27;20023;-70
2023/06/24 05:44:15;;;;;;;9.15;4.65;;;38.60;37.80;;;;;;5137655;27;20015;-70
2023/06/24 05:46:41;;;;;;;8.68;4.05;;;39.30;37.00;;;;;;5137420;27;20068;-69
2023/06/24 05:49:07;;;;;;;8.15;4.20;;;40.00;35.80;;;;;;5137497;27;20062;-69
2023/06/24 05:51:33;;;;;;;6.93;4.10;;;40.60;34.80;;;;;;5137821;27;20027;-69
2023/06/24 05:54:00;;;;;;;7.60;4.00;;;41.20;34.10;;;;;;5137769;27;20034;-70
2023/06/24 05:56:27;;;;;;;7.82;4.00;;;41.80;33.30;;;;;;5137243;27;20035;-70
2023/06/24 05:58:53;;;;;;;4.75;3.33;;;42.40;32.80;;;;;;5136755;27;20043;-70
2023/06/24 06:01:19;;;;;;;6.22;3.22;;;43.00;32.00;;;;;;5137133;27;20038;-69
2023/06/24 06:03:45;;;;;;;5.85;3.47;;;43.60;31.70;;;;;;5137622;27;20023;-70
2023/06/24 06:06:11;;;;;;;4.13;3.33;;;44.20;30.90;;;;;;5136963;27;20420;-70
2023/06/24 06:08:37;;;;;;;4.57;3.38;;;44.60;30.00;;;;;;5136932;27;20098;-70
2023/06/24 06:11:04;;;;;;;7.28;3.65;;;45.00;29.60;;;;;;5136110;27;20072;-70
2023/06/24 06:13:33;;;;;;;7.65;3.75;;;45.50;29.10;;;;;;5137380;27;20027;-69
2023/06/24 06:15:59;;;;;;;4.95;3.10;;;45.90;28.40;;;;;;5137315;27;20027;-70
2023/06/24 06:18:25;;;;;;;5.45;3.30;;;46.30;28.00;;;;;;5136502;27;20370;-69
2023/06/24 06:20:57;;;;;;;5.60;3.38;;;46.70;27.70;;;;;;5135877;27;20046;-69
2023/06/24 06:23:23;;;;;;;5.67;3.50;;;47.00;27.00;;;;;;5137243;27;20015;-68
2023/06/24 06:25:50;;;;;;;6.57;3.10;;;47.40;26.50;;;;;;5136804;27;20252;-69
2023/06/24 06:28:16;;;;;;;5.88;3.45;;;47.80;26.00;;;;;;5136790;27;20083;-69
2023/06/24 06:30:42;;;;;;;6.07;3.42;;;48.00;25.20;;;;;;5136372;27;20019;-66
2023/06/24 06:33:08;;;;;;;6.38;4.32;;;48.20;24.80;;;;;;5136786;27;20156;-66
2023/06/24 06:35:33;;;;;;;7.32;3.88;;;48.20;24.40;;;;;;5136188;27;20487;-68
2023/06/24 06:38:00;;;;;;;7.28;4.13;;;48.10;24.10;;;;;;5135932;27;20106;-68
2023/06/24 06:40:28;;;;;;;6.43;4.20;;;47.90;24.20;;;;;;5134560;27;20062;-68
2023/06/24 06:42:54;;;;;;;7.82;4.53;;;47.00;24.60;;;;;;5136362;27;20023;-68
2023/06/24 06:45:26;;;;;;;8.82;4.47;;;45.60;25.40;;;;;;5136468;27;20070;-69
2023/06/24 06:47:53;;;;;;;7.20;4.20;;;44.00;26.30;;;;;;5135594;27;20015;-67
2023/06/24 06:50:18;;;;;;;6.70;4.30;;;42.30;28.00;;;;;;5132977;27;20264;-70
2023/06/24 06:52:44;;;;;;;7.65;4.15;;;40.80;29.60;;;;;;5136212;27;20016;-70
2023/06/24 06:55:11;;;;;;;6.22;3.65;;;39.70;31.10;;;;;;5136505;27;20051;-70
2023/06/24 06:57:37;;;;;;;5.97;3.80;;;38.70;32.40;;;;;;5136495;27;20111;-69
2023/06/24 07:00:03;;;;;;;7.15;4.28;;;38.00;33.50;;;;;;5136085;27;20176;-70
2023/06/24 07:02:29;;;;;;;5.43;3.85;;;37.50;34.30;;;;;;5136696;27;20440;-69
2023/06/24 07:04:55;;;;;;;5.57;3.63;;;37.00;35.00;;;;;;5136164;27;20051;-69
2023/06/24 07:07:21;;;;;;;7.95;4.45;;;36.60;35.60;;;;;;5136102;27;20024;-69
2023/06/24 07:09:47;;;;;;;5.80;3.75;;;36.30;36.10;;;;;;5136062;27;20040;-69
2023/06/24 07:12:13;;;;;;;7.18;3.70;;;36.10;36.60;;;;;;5136068;28;20019;-69
2023/06/24 07:14:39;;;;;;;5.90;3.70;;;35.90;37.00;;;;;;5136040;27;20058;-69
2023/06/24 07:17:05;;;;;;;6.47;4.03;;;35.80;37.40;;;;;;5136537;28;20129;-68
2023/06/24 07:19:32;;;;;;;6.50;4.03;;;35.70;37.30;;;;;;5135859;27;20027;-70
2023/06/24 07:21:57;;;;;;;7.90;3.88;;;35.70;37.40;;;;;;5138219;27;20500;-69
2023/06/24 07:24:23;;;;;;;10.43;4.25;;;35.60;37.30;;;;;;5140152;27;20098;-70
2023/06/24 07:26:50;;;;;;;8.57;3.95;;;35.50;37.10;;;;;;5140055;27;20019;-68
2023/06/24 07:29:16;;;;;;;8.55;3.65;;;35.40;37.00;;;;;;5140568;27;20031;-70
2023/06/24 07:31:42;;;;;;;5.00;3.13;;;35.40;37.00;;;;;;5140027;27;20029;-69
2023/06/24 07:34:08;;;;;;;4.65;3.30;;;35.40;37.00;;;;;;5140505;27;20110;-70
2023/06/24 07:36:34;;;;;;;5.93;3.25;;;35.30;36.70;;;;;;5139944;27;20020;-69
2023/06/24 07:39:00;;;;;;;5.15;3.75;;;35.30;36.40;;;;;;5139754;27;20034;-69
2023/06/24 07:41:26;;;;;;;4.57;3.20;;;35.30;36.40;;;;;;5140066;27;20113;-70
2023/06/24 07:43:52;;;;;;;7.32;3.30;;;35.20;36.40;;;;;;5140115;27;20432;-69
2023/06/24 07:46:18;;;;;;;5.95;3.33;;;35.10;36.70;;;;;;5139700;27;20051;-69
2023/06/24 07:48:44;;;;;;;4.45;3.20;;;35.00;36.60;;;;;;5139639;27;20023;-70
2023/06/24 07:51:10;;;;;;;4.88;3.00;;;35.00;36.60;;;;;;5135671;27;20030;-70
2023/06/24 07:53:36;;;;;;;4.70;3.25;;;34.90;36.30;;;;;;5139924;27;20026;-69
2023/06/24 07:56:02;;;;;;;3.85;3.00;;;34.90;36.40;;;;;;5138511;27;20083;-69
2023/06/24 07:58:28;;;;;;;3.78;2.70;;;34.90;36.40;;;;;;5139008;27;20069;-69
2023/06/24 08:00:54;;;;;;;4.28;2.90;;;34.80;36.60;;;;;;5139334;27;20027;-70
2023/06/24 08:03:21;;;;;;;5.75;3.53;;;34.70;36.70;;;;;;5134359;27;20099;-70
2023/06/24 08:05:49;;;;;;;4.68;2.95;;;34.70;36.80;;;;;;5117096;28;20019;-70
2023/06/24 08:08:15;;;;;;;4.50;3.05;;;34.60;36.90;;;;;;5116832;28;20032;-68
2023/06/24 08:10:41;;;;;;;4.78;2.90;;;34.50;37.10;;;;;;5116696;28;20045;-68
2023/06/24 08:13:07;;;;;;;5.88;3.20;;;34.50;37.30;;;;;;5116653;28;20046;-69
2023/06/24 08:15:32;;;;;;;4.35;3.20;;;34.40;37.30;;;;;;5116547;28;20042;-68
2023/06/24 08:17:58;;;;;;;5.10;2.90;;;34.40;37.50;;;;;;5116391;28;20023;-69
2023/06/24 08:20:24;;;;;;;4.30;3.17;;;34.40;37.50;;;;;;5116643;28;20072;-70
2023/06/24 08:22:51;;;;;;;4.47;3.10;;;34.40;37.40;;;;;;5115733;28;20089;-69
2023/06/24 08:25:18;;;;;;;3.67;2.90;;;34.20;37.30;;;;;;5116616;28;20027;-69
2023/06/24 08:27:46;;;;;;;4.50;3.10;;;34.10;37.40;;;;;;5118316;28;20012;-70
2023/06/24 08:30:14;;;;;;;5.00;2.83;;;34.10;37.10;;;;;;5118292;28;20035;-69
2023/06/24 08:32:40;;;;;;;4.70;2.90;;;34.00;36.90;;;;;;5116438;28;20028;-71
2023/06/24 08:35:07;;;;;;;3.38;2.70;;;33.90;37.00;;;;;;5118769;28;20391;-69
2023/06/24 08:37:34;;;;;;;5.25;2.92;;;33.80;36.80;;;;;;5118127;28;20047;-70
2023/06/24 08:40:00;;;;;;;4.45;3.03;;;33.70;36.40;;;;;;5117894;28;20041;-71
2023/06/24 08:42:26;;;;;;;4.97;2.80;;;33.60;36.30;;;;;;5118115;28;20030;-71
2023/06/24 08:44:52;;;;;;;3.60;2.70;;;33.60;36.50;;;;;;5117055;28;20051;-70
2023/06/24 08:47:18;;;;;;;4.38;3.00;;;33.60;36.20;;;;;;5117958;28;20019;-72
2023/06/24 08:49:49;;;;;;;4.25;3.00;;;33.60;35.80;;;;;;5117919;28;20390;-70
2023/06/24 08:52:16;;;;;;;5.07;2.80;;;33.70;35.60;;;;;;5118262;28;20020;-70
2023/06/24 08:54:50;;;;;;;4.10;3.20;;;33.80;35.60;;;;;;5117872;28;20388;-69
2023/06/24 08:57:16;;;;;;;4.03;2.80;;;33.90;35.30;;;;;;5116932;28;20327;-72
2023/06/24 08:59:46;;;;;;;3.53;3.00;;;34.00;35.30;;;;;;5117503;28;20052;-71
2023/06/24 09:02:13;;;;;;;5.50;3.10;;;34.10;35.10;;;;;;5117780;28;20024;-70
2023/06/24 09:04:42;;;;;;;3.65;2.83;;;34.20;35.00;;;;;;5117608;28;20039;-70
2023/06/24 09:07:11;;;;;;;3.40;2.83;;;34.20;34.90;;;;;;5117658;27;20310;-70
2023/06/24 09:09:44;;;;;;;4.07;3.17;;;34.10;34.70;;;;;;5117790;28;20055;-71
2023/06/24 09:12:13;;;;;;;3.58;2.95;;;34.00;33.10;;;;;;5117472;28;20357;-71
2023/06/24 09:14:51;;;;;;;3.17;2.53;;;33.80;34.10;;;;;;5117551;28;20149;-69
2023/06/24 09:17:22;;;;;;;4.88;2.88;;;33.80;34.10;;;;;;5118015;28;20102;-69
2023/06/24 09:20:07;;;;;;;3.65;2.90;;;33.80;34.60;;;;;;5117798;28;20055;-69
2023/06/24 09:22:33;;;;;;;4.40;2.85;;;33.70;33.60;;;;;;5116387;28;20030;-68
2023/06/24 09:25:02;;;;;;;3.83;2.88;;;33.50;34.60;;;;;;5117601;27;20137;-71
2023/06/24 09:27:32;;;;;;;5.50;3.05;;;33.50;34.60;;;;;;5117329;28;20020;-70
2023/06/24 09:29:58;;;;;;;3.10;2.47;;;33.50;34.70;;;;;;5116523;28;20034;-71
2023/06/24 09:32:30;;;;;;;5.03;2.90;;;33.50;34.70;;;;;;5116132;28;20020;-71
2023/06/24 09:34:58;;;;;;;4.03;2.67;;;33.60;34.60;;;;;;5117078;28;20475;-72
2023/06/24 09:37:30;;;;;;;3.83;2.50;;;33.80;35.00;;;;;;5117075;28;20023;-69
2023/06/24 09:39:56;;;;;;;4.50;2.90;;;34.00;35.30;;;;;;5116896;27;20037;-69
2023/06/24 09:42:23;;;;;;;3.58;2.90;;;34.20;35.30;;;;;;5117004;28;20024;-71
2023/06/24 09:44:54;;;;;;;5.85;3.30;;;34.40;35.00;;;;;;5116861;28;20372;-71
2023/06/24 09:47:27;;;;;;;3.90;3.00;;;34.50;35.00;;;;;;5116825;28;20094;-71
2023/06/24 09:49:59;;;;;;;4.78;3.00;;;34.60;35.00;;;;;;5117116;28;20035;-69
2023/06/24 09:52:26;;;;;;;3.70;3.05;;;34.70;34.90;;;;;;5116799;28;20019;-70
2023/06/24 09:54:54;;;;;;;4.22;3.00;;;34.60;34.90;;;;;;5116997;28;20051;-72
2023/06/24 09:57:31;;;;;;;4.25;2.92;;;34.40;34.90;;;;;;5116661;28;20015;-70
2023/06/24 10:00:01;;;;;;;6.03;3.08;;;34.20;34.40;;;;;;5116522;28;20036;-72
2023/06/24 10:02:30;;;;;;;4.20;2.95;;;34.10;35.00;;;;;;5116623;28;20437;-71
2023/06/24 10:05:01;;;;;;;3.88;2.78;;;34.00;35.20;;;;;;5117041;28;20024;-71
2023/06/24 10:07:28;;;;;;;3.88;2.97;;;34.00;35.60;;;;;;5116400;28;20027;-72
2023/06/24 10:09:55;;;;;;;3.10;2.50;;;34.10;35.70;;;;;;5116021;28;20341;-70
2023/06/24 10:12:22;;;;;;;3.63;2.83;;;34.20;35.80;;;;;;5116354;28;20027;-70
2023/06/24 10:14:48;;;;;;;3.60;3.00;;;34.40;35.70;;;;;;5116870;28;20024;-70
2023/06/24 10:17:14;;;;;;;5.93;3.20;;;34.40;35.40;;;;;;5116561;28;20085;-72
2023/06/24 10:19:42;;;;;;;4.85;3.10;;;34.40;35.00;;;;;;5116364;28;20130;-72
2023/06/24 10:22:11;;;;;;;5.90;3.47;;;34.40;35.10;;;;;;5116466;28;20035;-70
2023/06/24 10:24:47;;;;;;;6.35;2.95;;;34.40;35.10;;;;;;5116724;28;20433;-71
2023/06/24 10:27:22;;;;;;;4.93;2.75;;;34.40;35.10;;;;;;5116680;28;20024;-71
2023/06/24 10:29:51;;;;;;;5.40;3.05;;;34.20;35.20;;;;;;5115095;28;20349;-69
2023/06/24 10:32:18;;;;;;;4.80;3.03;;;34.10;35.20;;;;;;5116048;28;20034;-70
2023/06/24 10:34:53;;;;;;;5.15;3.35;;;34.00;35.40;;;;;;5115031;28;20035;-71
2023/06/24 10:37:31;;;;;;;5.22;3.00;;;33.90;35.40;;;;;;5115026;28;20040;-70
2023/06/24 10:40:02;;;;;;;5.25;3.00;;;33.70;35.70;;;;;;5114812;28;20039;-70
2023/06/24 10:42:38;;;;;;;4.22;2.97;;;33.60;36.20;;;;;;5115917;28;20081;-72
2023/06/24 10:45:22;;;;;;;5.03;3.10;;;33.50;36.40;;;;;;5114904;28;20408;-71
2023/06/24 10:47:52;;;;;;;3.22;2.80;;;33.40;36.40;;;;;;5116284;28;20053;-71
2023/06/24 10:50:23;;;;;;;4.82;3.28;;;33.40;36.70;;;;;;5116076;28;20326;-71
2023/06/24 10:52:55;;;;;;;4.75;3.05;;;33.30;36.80;;;;;;5116030;28;20055;-71
2023/06/24 10:55:28;;;;;;;5.30;3.58;;;33.30;36.70;;;;;;5115910;28;20023;-69
2023/06/24 10:57:54;;;;;;;4.20;2.97;;;33.20;36.70;;;;;;5115409;28;20370;-69
2023/06/24 11:00:22;;;;;;;4.80;3.33;;;33.20;36.90;;;;;;5115574;28;20035;-70
2023/06/24 11:02:52;;;;;;;3.78;3.00;;;33.20;36.80;;;;;;5116151;28;20020;-70
2023/06/24 11:05:20;;;;;;;4.88;3.35;;;33.10;36.80;;;;;;5115484;28;20457;-71
2023/06/24 11:07:47;;;;;;;4.55;2.95;;;33.00;37.10;;;;;;5116038;28;20485;-70
2023/06/24 11:10:15;;;;;;;4.68;3.20;;;33.00;37.20;;;;;;5115863;28;20024;-72
2023/06/24 11:12:47;;;;;;;4.32;3.03;;;33.10;37.20;;;;;;5115863;28;20024;-70
2023/06/24 11:15:14;;;;;;;4.33;2.77;;;33.10;37.20;;;;;;5115754;28;20031;-70
2023/06/24 11:17:42;;;;;;;4.35;2.80;;;32.90;37.20;;;;;;5115482;28;20034;-69
2023/06/24 11:20:13;;;;;;;3.72;3.05;;;32.80;37.30;;;;;;5115376;28;20023;-70
2023/06/24 11:22:43;;;;;;;3.55;2.88;;;32.70;37.30;;;;;;5114444;28;20028;-69
2023/06/24 11:25:29;;;;;;;6.45;3.20;;;32.60;37.50;;;;;;5115984;28;20019;-71
2023/06/24 11:28:00;;;;;;;6.40;3.10;;;32.60;37.50;;;;;;5115943;28;20024;-70
2023/06/24 11:30:27;;;;;;;4.25;2.95;;;32.50;37.90;;;;;;5115933;28;20030;-71
2023/06/24 11:32:55;;;;;;;4.70;3.45;;;32.40;37.50;;;;;;5115686;28;20019;-71
2023/06/24 11:35:21;;;;;;;5.13;3.45;;;32.30;37.60;;;;;;5115305;28;20027;-71
2023/06/24 11:37:52;;;;;;;4.93;3.40;;;32.20;37.60;;;;;;5115765;28;20417;-71
2023/06/24 11:40:20;;;;;;;5.35;3.50;;;32.00;37.80;;;;;;5115212;28;20028;-71
2023/06/24 11:42:50;;;;;;;4.63;3.28;;;31.90;38.00;;;;;;5114364;28;20047;-71
2023/06/24 11:45:21;;;;;;;4.93;3.25;;;31.90;38.10;;;;;;5115254;28;20027;-69
2023/06/24 11:47:48;;;;;;;5.03;3.40;;;31.90;38.10;;;;;;5115371;28;20041;-71
2023/06/24 11:50:30;;;;;;;4.90;3.15;;;31.80;38.30;;;;;;5114584;28;20027;-70
2023/06/24 11:52:56;;;;;;;6.07;3.00;;;31.70;38.10;;;;;;5115785;28;20083;-69
2023/06/24 11:55:26;;;;;;;3.88;3.03;;;31.70;38.30;;;;;;5115442;28;20061;-70
2023/06/24 11:57:57;;;;;;;5.25;3.10;;;31.80;38.40;;;;;;5113648;28;20377;-70
2023/06/24 12:00:44;;;;;;;4.82;3.30;;;31.70;38.20;;;;;;5115302;28;20117;-72
2023/06/24 12:03:11;;;;;;;4.25;2.95;;;31.70;38.00;;;;;;5118327;28;20055;-68
2023/06/24 12:05:44;;;;;;;4.80;3.00;;;31.60;38.40;;;;;;5117366;28;20028;-69
2023/06/24 12:08:12;;;;;;;4.47;3.22;;;31.70;38.50;;;;;;5115529;28;20069;-69
2023/06/24 12:10:44;;;;;;;6.15;3.20;;;31.70;38.40;;;;;;5118686;28;20073;-70
2023/06/24 12:13:10;;;;;;;4.32;2.85;;;31.80;38.40;;;;;;5118597;28;20364;-70
2023/06/24 12:15:36;;;;;;;5.78;3.45;;;31.70;38.50;;;;;;5118709;28;20020;-72
2023/06/24 12:18:05;;;;;;;4.50;2.95;;;31.70;38.40;;;;;;5117909;28;20028;-70
2023/06/24 12:20:32;;;;;;;4.20;2.90;;;31.70;38.20;;;;;;5118422;28;20030;-71
2023/06/24 12:22:58;;;;;;;5.03;3.17;;;31.60;38.30;;;;;;5118316;28;20027;-70
2023/06/24 12:25:24;;;;;;;3.72;3.00;;;31.60;38.20;;;;;;5118496;28;20050;-70
2023/06/24 12:27:50;;;;;;;4.50;2.95;;;31.60;38.20;;;;;;5118358;28;20035;-72
2023/06/24 12:30:16;;;;;;;5.15;2.63;;;31.60;38.40;;;;;;5118898;28;20066;-71
2023/06/24 12:32:43;;;;;;;5.25;2.72;;;31.60;38.20;;;;;;5118302;28;20365;-71
2023/06/24 12:35:10;;;;;;;4.22;2.58;;;31.60;38.20;;;;;;5118566;28;20201;-71
2023/06/24 12:37:37;;;;;;;4.60;3.00;;;31.60;38.10;;;;;;5117264;28;20035;-68
2023/06/24 12:40:04;;;;;;;3.88;2.80;;;31.60;38.20;;;;;;5118072;28;20020;-69
2023/06/24 12:42:30;;;;;;;4.00;3.05;;;31.60;38.20;;;;;;5114422;28;20028;-70
2023/06/24 12:44:56;;;;;;;5.43;3.15;;;31.60;38.30;;;;;;5118003;28;20445;-70
2023/06/24 12:47:22;;;;;;;4.00;2.83;;;31.50;38.20;;;;;;5118350;28;20023;-70